Open Full Screen Window  High Contrast Mode
Wind Gusting 00 knots
08
August 29, 2016 10:39 AM EDT
Weather Information
Wind Direction
  090 °
Wind Speed
  08 kt (9 mph)
Wind Gust
  00 kt (0 mph)
Altimeter
30.28 in
Visibility
10 SM
Temperature
24° C
75° F
Dewpoint
16° C
61° F
Humidity
61%
1hr Rain Fall
00.00 in.
24hr Rain Fall
00.00 in.
Sky Condition
Clear
VFR

METAR KPOV 291439Z AUTO 09008KT 10SM CLR 24/16 A3028 RMK AO2 T02440164

*Background is not an actual portrayal of the airport.